Nerinx, Kentucky
Current Conditions -  °F | °C
As of 4:55 PM on Thursday 27 Nov 2014 (Local Time) from K6I2 Reporting Station
Overcast Overcast  
Wind Chill: 23°   Ceiling: 2200
Heat Index: 32°   Visibility: 10mi
Dew Point: 23°   Wind: 13mph
Humidity: 69%   Direction: 360°N
Pressure: 30.39"   Gusts: 17mph
Location:  37.66°N, 85.4°W
Report Text: K6I2 272155Z AUTO 36011G15KT 10SM OVC022 00/M05 A3039 RMK AO2
Loading
Personal Weather Stations






























Interactive Weather Map New forecast layout! Learn more

10-Day Weather Forecast

Advertisements
Track Severe Weather on mobile